Архив погоды в Канкунском

Метеограмма Канкунский
Воскресенье, 22 Июля
Время местн. Темп Ветер Видим Явления Облачность нижн/средн/верх Атм. давл. Влжн Точка росы ВНГО R Сост. почвы Tg s
Напр Скр Прв ур.ст ур.м изм
09:00 +11.2° Ю 7 - 50 км - облачно 651 628 -0.9 97% +10.8° 1 км 0 Сухая (без трещин) - -
06:00 +11.8° Ю 7 - более 50 км - облачно 652 630 -2.5 77% +7.9° 1 км - - - -
03:00 +10.1° штиль 0 - 50 км - облачно 654 632 +0.2 82% +7.2° 1 км - - - -
00:00 +12.8° Ю 2 - более 50 км - облачно 654 632 +0.2 79% +9.3° 1.5 км - - - -
Суббота, 21 Июля
Время местн. Темп Ветер Видим Явления Облачность нижн/средн/верх Атм. давл. Влжн Точка росы ВНГО R Сост. почвы Tg s
Напр Скр Прв ур.ст ур.м изм
21:00 +16.8° Ю 3 - 50 км - облачно 654 632 -0.3 70% +11.3° 1 км 0 - - -
18:00 +20.4° Ю 3 - более 50 км - облачно 654 633 -0.7 61% +12.6° 1 км - - - -
15:00 +23.4° З 2 - 50 км - облачно с прояснениями 655 634 -1.8 44% +10.6° более 2.5 км - - - -
12:00 +21.3° З 3 - более 50 км - переменная облачность 657 635 +0.4 44% +8.7° более 2.5 км - - - -
09:00 +14.9° Ю-З 2 - 50 км - ясно 656 634 +1.1 63% +7.9° более 2.5 км 0 Сухая (без трещин) - -
06:00 +5.2° штиль 0 - 50 км - ясно 655 633 +0.2 95% +4.4° более 2.5 км - - - -
03:00 +6.7° штиль 0 - 50 км - ясно 655 633 +0.3 95% +6° более 2.5 км - - - -
00:00 +7.4° штиль 0 - более 50 км - ясно 640 632 +0.1 88% +5.5° более 2.5 км - - - -
Пятница, 20 Июля
Время местн. Темп Ветер Видим Явления Облачность нижн/средн/верх Атм. давл. Влжн Точка росы ВНГО R Сост. почвы Tg s
Напр Скр Прв ур.ст ур.м изм
21:00 +13.5° штиль 0 - 50 км - незначительная облачность 655 632 +0.2 84% +10.8° 1 км 0 - - -
18:00 +19° штиль 0 - более 50 км - облачно с прояснениями 654 633 -0.1 58% +10.5° 1 км - - - -
15:00 +18.6° Ю 3 - 50 км - облачно 655 633 -0.5 58% +10.2° 1 км - - - -
12:00 +16.7° штиль 0 - более 50 км - облачно с прояснениями 655 633 0 65% +10.1° 1 км - - - -
09:00 +14.9° Ю 1 - 50 км - облачно 655 633 +0.2 69% +9.3° 1 км 0 Сухая (без трещин) - -
06:00 +7.8° штиль 0 - более 50 км - облачно 655 633 -0.5 83% +5.1° 1 км - - - -
03:00 +7.1° штиль 0 - 50 км - облачно 655 633 -0.3 88% +5.3° 1 км - - - -
00:00 +10.1° штиль 0 - 50 км - облачно 657 634 -0.4 86% +7.8° 1 км - - - -
Четверг, 19 Июля
Время местн. Темп Ветер Видим Явления Облачность нижн/средн/верх Атм. давл. Влжн Точка росы ВНГО R Сост. почвы Tg s
Напр Скр Прв ур.ст ур.м изм
21:00 +13° штиль 0 - 50 км - облачно с прояснениями 656 634 -0.2 64% +6.3° 1 км 0 - - -
18:00 +16.6° С-В 2 - 50 км - облачно с прояснениями 656 634 -1.1 54% +7.2° - - - - -
15:00 +20° В 2 - 50 км - облачно с прояснениями 657 636 -0.2 49% +9° - - - - -
12:00 +15.3° В 3 - 50 км - переменная облачность 643 635 -0.3 54% +6° более 2.5 км - - - -
09:00 +12.5° С-В 4 - 50 км - переменная облачность 658 635 -0.2 71% +7.4° более 2.5 км 0 Влажная (без луж) - -
06:00 +5.3° штиль 0 - 50 км - ясно 658 635 -0.7 117% +7.6° более 2.5 км - - - -